Hovedside
METAR-TAF:

METAR-TAF

Lufthavner :

Cairns, Australia

breddegrad: 16-53S, lengdegrad: 145-45E, høyde over havet: 3 m

Gjeldene værobservasjon

Denne rapporten ble laget for 43 minutter siden, klokken 17:30 UTC
Vind 6 kt fra Sørøst
Temperatur 23°C
Luftfuktighet 83%
Trykk 1014 hPa
Sikt 10 km eller mer

METAR: YBCS 091730Z AUTO 14006KT 9999 // NCD 23/20 Q1014 RF00.0/000.0 NOSIG

Tid: 04:13 (18:13 UTC)

Varsel

Denne rapporten ble laget for 1 time og 4 minutter siden, klokken 17:09 UTC
Varsel gyldig fra 09. klokken 18 UTC til 10. klokken 18 UTC
Vind 8 kt fra Sør
Sikt 10 km eller mer
Få skyer i en høyde av 2500 ft
Fra 10. klokken 0000 UTC
Vind 13 kt fra Sørøst
Sikt 10 km eller mer
Spredte skyer i en høyde av 2500 ft
Fra 10. klokken 0800 UTC
Vind 8 kt fra Sør
Sikt 10 km eller mer
Få skyer i en høyde av 2500 ft

TAF: YBCS 091709Z 0918/1018 17008KT 9999 FEW025 FM100000 13013KT 9999 SCT025 FM100800 17008KT 9999 FEW025

Værobservasjoner og værvarsel for over 4000 flyplasser (METAR- og TAF-rapporter).

Tilgjengelige stasjoner er representert av de røde og gule prikkene på kartet.

Hold musepekeren over prikken for å se navnet på stasjonen.

Klikk så for å se værobservasjoner og -varsler.

For å forandre kartet kan du klikke på den grønne knappen med svart kryss for å zoome inn, på den grønne knappen med strek for å zoome ut, eller på de grønne pilene for å se tilstøtende kart.


METAR-TAF: